Saco, MT

8:24 AM MDT on July 04, 2015 (GMT -0600)
APRSWXNET | | Change Station
CLOSE
Current Station
Personal Weather Station
Location: Vandalia, MT
Elevation: 2158 ft
Nearby Weather Stations

Elev 2158 ft 48.35 °N, 106.84 °W | Updated 23 minutes ago

Clear
Clear
70 °F
Feels Like 70 °F
N
4
Wind Variable Wind from East
Gusts 0.0 mph

Today
High -- | Low -- °F
--% Chance of Precip.
Yesterday
High -- | Low -- °F
Precip. -- in
5:13 AM 9:13 PM
Waning Gibbous, 92% visible
Pressure 29.67 in
Visibility 6.0 miles
Clouds Clear
Dew Point 62 °F
Humidity 75%
Rainfall in
Snow Depth Not available.
UV 2 out of 12
Pollen 5.70 out of 12
Air Quality Not available.
Flu Activity Not available.
METAR KGGW 041353Z AUTO 12007KT 6SM HZ CLR 23/14 A2972 RMK AO2 SLP046 T02280144

More Conditions Fewer Conditions

Pressure 29.67 in
Visibility 6.0 miles
Clouds Clear
Dew Point 62 °F
Humidity 75%
Rainfall in
Snow Depth Not available.
UV 2 out of 12
Pollen 5.70 out of 12
Air Quality Not available.
Flu Activity Not available.
METAR KGGW 041353Z AUTO 12007KT 6SM HZ CLR 23/14 A2972 RMK AO2 SLP046 T02280144

More Conditions Fewer Conditions

10-Day Weather Forecast

×

Almanac

Astronomy

Jul. 04, 2015 Rise Set
Actual Time
Civil Twilight
Nautical Twilight
Astronomical Twilight
Moon
Length of Visible Light
Length of Day
Tomorrow will be .
, % of the Moon is Illuminated

Today's Extremes

State Highs State Lows

Community

WunderPhotos

Upload Photos

1,834,978 photos uploaded!

WunderBlogs® & News

Nearby

Air Quality

  Air Quality AQ Index Pollutant
Not available.

Snow Depth

Station Depth Elevation

Earthquake Activity

City Distance Mag. Time & Date
Minimum magnitude displayed is 2.5.

Coastal Water Temperatures

Place Temperature

Stations

Nearby Weather Stations

Station Location Temp. Windchill Dew Point Humidity Wind Precip. Elev Updated Type